Time;durP1;ratioP1;P1;durP2;ratioP2;P2;SDS_P1;SDS_P2;PMS_P1;PMS_P2;Temp;Humidity;BMP_temperature;BMP_pressure;BME280_temperature;BME280_humidity;BME280_pressure;Samples;Min_cycle;Max_cycle;Signal;HPM_P1;HPM_P2
2023/07/16 00:00:08;;;;;;;8.15;5.20;;;;;;;;;;5114593;28;20452;-83
2023/07/16 00:02:35;;;;;;;6.05;5.45;;;;;;;;;;5114867;28;20494;-85
2023/07/16 00:05:03;;;;;;;6.25;5.45;;;;;;;;;;5115902;27;20051;-85
2023/07/16 00:07:30;;;;;;;5.82;5.28;;;;;;;;;;5114772;28;20047;-85
2023/07/16 00:09:57;;;;;;;10.48;5.53;;;;;;;;;;5114911;28;20052;-85
2023/07/16 00:12:25;;;;;;;12.13;6.18;;;;;;;;;;5114656;28;20048;-85
2023/07/16 00:14:52;;;;;;;12.52;6.40;;;;;;;;;;5114882;28;20051;-84
2023/07/16 00:17:19;;;;;;;8.43;5.15;;;;;;;;;;5114688;28;20104;-86
2023/07/16 00:19:46;;;;;;;7.13;4.53;;;;;;;;;;5117612;28;20090;-85
2023/07/16 00:22:13;;;;;;;8.07;5.30;;;;;;;;;;5117566;28;20043;-85
2023/07/16 00:24:41;;;;;;;7.65;6.10;;;;;;;;;;5116543;28;20055;-85
2023/07/16 00:27:08;;;;;;;13.10;5.80;;;;;;;;;;5115178;28;20051;-85
2023/07/16 00:29:35;;;;;;;5.93;5.40;;;;;;;;;;5114605;28;20047;-86
2023/07/16 00:32:02;;;;;;;6.13;5.53;;;;;;;;;;5114736;28;20473;-86
2023/07/16 00:34:30;;;;;;;9.48;5.65;;;;;;;;;;5114680;28;20052;-86
2023/07/16 00:37:01;;;;;;;7.43;5.75;;;;;;;;;;5114057;28;20096;-86
2023/07/16 00:39:29;;;;;;;9.15;4.90;;;;;;;;;;5115731;28;20459;-86
2023/07/16 00:41:57;;;;;;;5.93;5.32;;;;;;;;;;5114074;28;20586;-85
2023/07/16 00:44:24;;;;;;;6.30;5.45;;;;;;;;;;5114413;28;20476;-85
2023/07/16 00:46:52;;;;;;;7.97;5.35;;;;;;;;;;5115123;28;20631;-85
2023/07/16 00:49:19;;;;;;;7.15;5.80;;;;;;;;;;5114482;28;20047;-85
2023/07/16 00:51:47;;;;;;;10.45;7.00;;;;;;;;;;5113968;28;20524;-86
2023/07/16 00:54:14;;;;;;;10.25;7.43;;;;;;;;;;5114118;28;20055;-86
2023/07/16 00:56:41;;;;;;;7.05;6.30;;;;;;;;;;5113951;28;20051;-85
2023/07/16 00:59:08;;;;;;;8.90;6.60;;;;;;;;;;5114551;28;20073;-85
2023/07/16 01:01:36;;;;;;;8.05;7.30;;;;;;;;;;5114814;28;20483;-86
2023/07/16 01:04:03;;;;;;;8.50;7.03;;;;;;;;;;5114059;28;20423;-86
2023/07/16 01:06:36;;;;;;;7.53;6.85;;;;;;;;;;5113869;28;20051;-85
2023/07/16 01:09:08;;;;;;;7.75;6.63;;;;;;;;;;5113096;28;20044;-85
2023/07/16 01:11:35;;;;;;;11.00;7.35;;;;;;;;;;5113945;28;20051;-86
2023/07/16 01:14:03;;;;;;;8.55;7.75;;;;;;;;;;5113543;28;20563;-86
2023/07/16 01:16:30;;;;;;;12.00;7.03;;;;;;;;;;5113553;28;20048;-85
2023/07/16 01:18:58;;;;;;;9.77;7.07;;;;;;;;;;5113573;28;20387;-85
2023/07/16 01:21:29;;;;;;;9.25;8.30;;;;;;;;;;5113486;28;20052;-86
2023/07/16 01:23:59;;;;;;;8.57;6.65;;;;;;;;;;5114619;28;20043;-86
2023/07/16 01:26:45;;;;;;;8.20;7.43;;;;;;;;;;5113137;28;20097;-86
2023/07/16 01:29:29;;;;;;;9.52;7.50;;;;;;;;;;5113901;28;20126;-86
2023/07/16 01:32:00;;;;;;;7.28;6.40;;;;;;;;;;5113109;28;20155;-86
2023/07/16 01:34:29;;;;;;;9.65;8.25;;;;;;;;;;5113258;28;20573;-86
2023/07/16 01:36:56;;;;;;;10.20;8.32;;;;;;;;;;5112984;28;20048;-85
2023/07/16 01:39:23;;;;;;;7.30;6.60;;;;;;;;;;5113296;28;20118;-85
2023/07/16 01:41:51;;;;;;;9.40;7.47;;;;;;;;;;5113043;28;20112;-87
2023/07/16 01:44:18;;;;;;;8.43;7.40;;;;;;;;;;5112869;28;20521;-86
2023/07/16 01:46:50;;;;;;;7.53;6.88;;;;;;;;;;5112893;28;20069;-86
2023/07/16 01:49:17;;;;;;;6.80;6.13;;;;;;;;;;5114242;28;20383;-86
2023/07/16 01:51:44;;;;;;;8.57;6.22;;;;;;;;;;5112840;28;20100;-84
2023/07/16 01:54:11;;;;;;;7.72;5.97;;;;;;;;;;5113184;28;20070;-85
2023/07/16 01:56:39;;;;;;;7.53;6.82;;;;;;;;;;5114293;28;20097;-86
2023/07/16 01:59:06;;;;;;;6.05;5.45;;;;;;;;;;5113849;28;20047;-85
2023/07/16 02:01:33;;;;;;;8.10;6.07;;;;;;;;;;5112688;28;20043;-85
2023/07/16 02:04:00;;;;;;;9.88;7.10;;;;;;;;;;5112643;28;20044;-85
2023/07/16 02:06:28;;;;;;;8.68;6.20;;;;;;;;;;5112406;28;20517;-85
2023/07/16 02:08:55;;;;;;;6.32;5.72;;;;;;;;;;5112566;28;20503;-85
2023/07/16 02:11:22;;;;;;;7.55;4.97;;;;;;;;;;5112195;28;20509;-85
2023/07/16 02:13:49;;;;;;;6.15;4.93;;;;;;;;;;5112220;28;20062;-85
2023/07/16 02:16:17;;;;;;;7.13;5.28;;;;;;;;;;5112373;28;20474;-85
2023/07/16 02:18:44;;;;;;;5.80;5.07;;;;;;;;;;5112048;28;20134;-83
2023/07/16 02:21:12;;;;;;;7.30;5.80;;;;;;;;;;5112359;28;20047;-86
2023/07/16 02:23:39;;;;;;;9.10;6.35;;;;;;;;;;5113229;28;20043;-85
2023/07/16 02:26:06;;;;;;;5.60;5.05;;;;;;;;;;5111538;28;20072;-84
2023/07/16 02:28:33;;;;;;;4.95;4.55;;;;;;;;;;5112197;28;20049;-85
2023/07/16 02:31:01;;;;;;;4.70;4.30;;;;;;;;;;5112000;28;20567;-85
2023/07/16 02:33:28;;;;;;;4.30;3.95;;;;;;;;;;5111955;28;20548;-86
2023/07/16 02:35:56;;;;;;;4.57;4.28;;;;;;;;;;5111822;28;20069;-85
2023/07/16 02:38:23;;;;;;;5.28;4.15;;;;;;;;;;5112883;28;20053;-85
2023/07/16 02:40:50;;;;;;;6.80;6.07;;;;;;;;;;5111728;28;20039;-85
2023/07/16 02:43:17;;;;;;;9.45;5.80;;;;;;;;;;5111746;28;20544;-86
2023/07/16 02:45:45;;;;;;;7.55;5.60;;;;;;;;;;5112702;28;20040;-86
2023/07/16 02:48:12;;;;;;;8.32;6.18;;;;;;;;;;5111656;28;20043;-86
2023/07/16 02:50:39;;;;;;;7.60;5.60;;;;;;;;;;5113277;28;20052;-86
2023/07/16 02:53:07;;;;;;;6.25;5.55;;;;;;;;;;5111594;28;20074;-87
2023/07/16 02:55:38;;;;;;;7.68;5.85;;;;;;;;;;5111404;28;20507;-86
2023/07/16 02:58:05;;;;;;;8.32;5.43;;;;;;;;;;5112925;28;20055;-85
2023/07/16 03:00:32;;;;;;;8.57;5.45;;;;;;;;;;5111683;28;20725;-86
2023/07/16 03:03:00;;;;;;;5.85;5.05;;;;;;;;;;5112697;28;20491;-86
2023/07/16 03:05:28;;;;;;;11.07;6.03;;;;;;;;;;5111216;28;20043;-88
2023/07/16 03:07:55;;;;;;;5.88;4.47;;;;;;;;;;5111209;28;20051;-85
2023/07/16 03:10:23;;;;;;;3.80;3.53;;;;;;;;;;5111486;28;20051;-84
2023/07/16 03:12:50;;;;;;;5.13;3.60;;;;;;;;;;5111543;28;20104;-84
2023/07/16 03:15:17;;;;;;;3.83;3.58;;;;;;;;;;5111255;28;20052;-84
2023/07/16 03:17:44;;;;;;;5.20;3.70;;;;;;;;;;5111236;28;20047;-87
2023/07/16 03:20:13;;;;;;;4.10;3.83;;;;;;;;;;5110812;28;20101;-83
2023/07/16 03:22:40;;;;;;;3.90;3.60;;;;;;;;;;5111253;28;20055;-85
2023/07/16 03:25:07;;;;;;;4.53;3.53;;;;;;;;;;5111268;28;20414;-86
2023/07/16 03:27:35;;;;;;;7.47;3.70;;;;;;;;;;5111052;28;20556;-85
2023/07/16 03:30:04;;;;;;;4.90;4.22;;;;;;;;;;5111270;28;20061;-87
2023/07/16 03:32:31;;;;;;;4.10;3.80;;;;;;;;;;5113012;28;20568;-87
2023/07/16 03:35:18;;;;;;;4.82;4.30;;;;;;;;;;5115466;28;20095;-87
2023/07/16 03:37:45;;;;;;;8.20;4.65;;;;;;;;;;5115453;28;20430;-87
2023/07/16 03:40:17;;;;;;;8.75;4.50;;;;;;;;;;5115306;28;20044;-86
2023/07/16 03:42:44;;;;;;;5.85;4.07;;;;;;;;;;5115581;28;20047;-87
2023/07/16 03:45:11;;;;;;;4.13;3.72;;;;;;;;;;5115266;28;20051;-88
2023/07/16 03:47:39;;;;;;;3.95;2.58;;;;;;;;;;5115244;28;20564;-83
2023/07/16 03:50:06;;;;;;;6.55;2.60;;;;;;;;;;5115320;28;20120;-84
2023/07/16 03:52:34;;;;;;;3.05;2.50;;;;;;;;;;5115145;28;20055;-86
2023/07/16 03:55:01;;;;;;;2.70;2.60;;;;;;;;;;5115021;28;20055;-85
2023/07/16 03:57:29;;;;;;;2.60;2.40;;;;;;;;;;5115972;28;20058;-85
2023/07/16 03:59:56;;;;;;;2.85;2.35;;;;;;;;;;5114746;28;20043;-85
2023/07/16 04:02:24;;;;;;;7.90;2.83;;;;;;;;;;5114964;28;20127;-86
2023/07/16 04:04:51;;;;;;;6.28;2.67;;;;;;;;;;5114766;28;20093;-86
2023/07/16 04:07:19;;;;;;;2.75;2.55;;;;;;;;;;5114653;28;20059;-85
2023/07/16 04:09:46;;;;;;;2.72;2.53;;;;;;;;;;5114743;28;20097;-85
2023/07/16 04:12:13;;;;;;;3.00;2.70;;;;;;;;;;5114544;28;20087;-84
2023/07/16 04:14:40;;;;;;;3.38;3.08;;;;;;;;;;5115192;28;20511;-84
2023/07/16 04:17:07;;;;;;;2.58;2.40;;;;;;;;;;5116534;28;20062;-84
2023/07/16 04:19:35;;;;;;;3.30;2.65;;;;;;;;;;5114433;28;20051;-84
2023/07/16 04:22:02;;;;;;;3.40;3.10;;;;;;;;;;5115516;28;20452;-85
2023/07/16 04:24:29;;;;;;;3.25;3.03;;;;;;;;;;5114357;28;20051;-84
2023/07/16 04:26:57;;;;;;;5.10;3.80;;;;;;;;;;5116114;28;20070;-84
2023/07/16 04:29:24;;;;;;;4.18;3.45;;;;;;;;;;5117147;28;20092;-85
2023/07/16 04:31:51;;;;;;;3.45;3.15;;;;;;;;;;5118342;28;20073;-85
2023/07/16 04:34:19;;;;;;;2.95;2.65;;;;;;;;;;5116437;28;20047;-85
2023/07/16 04:36:46;;;;;;;4.50;2.55;;;;;;;;;;5114828;28;20444;-83
2023/07/16 04:39:13;;;;;;;4.15;2.60;;;;;;;;;;5114476;28;20044;-83
2023/07/16 04:41:40;;;;;;;6.93;2.28;;;;;;;;;;5114048;28;20077;-82
2023/07/16 04:44:08;;;;;;;2.50;2.40;;;;;;;;;;5114827;28;20054;-83
2023/07/16 04:46:35;;;;;;;2.70;2.30;;;;;;;;;;5114154;28;20055;-84
2023/07/16 04:49:02;;;;;;;5.10;2.05;;;;;;;;;;5114432;28;20065;-83
2023/07/16 04:51:29;;;;;;;3.20;2.17;;;;;;;;;;5115603;28;20047;-82
2023/07/16 04:53:57;;;;;;;2.50;2.35;;;;;;;;;;5114993;28;20101;-82
2023/07/16 04:56:24;;;;;;;2.88;2.35;;;;;;;;;;5115169;28;20092;-83
2023/07/16 04:58:51;;;;;;;2.90;2.70;;;;;;;;;;5113910;28;20047;-83
2023/07/16 05:01:20;;;;;;;3.88;3.58;;;;;;;;;;5114193;28;20507;-82
2023/07/16 05:03:47;;;;;;;3.35;3.15;;;;;;;;;;5116307;28;20096;-82
2023/07/16 05:06:15;;;;;;;2.60;2.40;;;;;;;;;;5114784;28;20050;-82
2023/07/16 05:08:42;;;;;;;2.50;2.35;;;;;;;;;;5114572;28;20047;-82
2023/07/16 05:11:13;;;;;;;3.75;2.25;;;;;;;;;;5115646;28;20047;-82
2023/07/16 05:13:40;;;;;;;5.43;2.60;;;;;;;;;;5116427;28;20496;-81
2023/07/16 05:16:07;;;;;;;2.35;2.25;;;;;;;;;;5114285;28;20074;-81
2023/07/16 05:18:35;;;;;;;2.45;1.70;;;;;;;;;;5114669;28;20048;-82
2023/07/16 05:21:02;;;;;;;3.20;1.90;;;;;;;;;;5113858;28;20109;-80
2023/07/16 05:23:29;;;;;;;9.18;2.22;;;;;;;;;;5115473;28;20096;-82
2023/07/16 05:25:56;;;;;;;2.05;1.80;;;;;;;;;;5113868;28;20096;-79
2023/07/16 05:28:23;;;;;;;3.20;2.00;;;;;;;;;;5115432;28;20043;-82
2023/07/16 05:31:01;;;;;;;3.05;1.38;;;;;;;;;;5114008;28;20071;-82
2023/07/16 05:33:28;;;;;;;4.45;1.50;;;;;;;;;;5113240;28;20079;-79
2023/07/16 05:35:55;;;;;;;4.40;1.48;;;;;;;;;;5113203;28;20059;-80
2023/07/16 05:38:22;;;;;;;1.52;1.30;;;;;;;;;;5114539;28;20105;-80
2023/07/16 05:40:50;;;;;;;3.38;1.42;;;;;;;;;;5114155;28;20048;-80
2023/07/16 05:43:17;;;;;;;2.15;1.38;;;;;;;;;;5114614;28;20050;-80
2023/07/16 05:45:45;;;;;;;2.97;1.30;;;;;;;;;;5113798;28;20048;-82
2023/07/16 05:48:12;;;;;;;3.55;1.45;;;;;;;;;;5113101;28;20077;-79
2023/07/16 05:50:40;;;;;;;5.63;1.60;;;;;;;;;;5113218;28;20071;-81
2023/07/16 05:53:07;;;;;;;3.10;1.60;;;;;;;;;;5114918;28;20384;-82
2023/07/16 05:55:35;;;;;;;4.95;1.67;;;;;;;;;;5117561;28;20056;-81
2023/07/16 05:58:02;;;;;;;4.13;1.60;;;;;;;;;;5118439;28;20047;-81
2023/07/16 06:00:29;;;;;;;2.20;1.40;;;;;;;;;;5121084;28;20431;-81
2023/07/16 06:02:57;;;;;;;3.03;1.23;;;;;;;;;;5120405;28;20058;-84
2023/07/16 06:05:30;;;;;;;1.23;1.13;;;;;;;;;;5119503;28;20487;-83
2023/07/16 06:07:58;;;;;;;3.08;1.63;;;;;;;;;;5119878;28;20048;-83
2023/07/16 06:10:25;;;;;;;1.33;1.02;;;;;;;;;;5120280;28;20116;-83
2023/07/16 06:12:52;;;;;;;1.38;1.00;;;;;;;;;;5117749;28;20093;-81
2023/07/16 06:15:19;;;;;;;1.80;1.10;;;;;;;;;;5115341;28;20061;-82
2023/07/16 06:17:47;;;;;;;1.38;1.00;;;;;;;;;;5118316;28;20047;-83
2023/07/16 06:20:14;;;;;;;1.58;0.85;;;;;;;;;;5118458;28;20131;-84
2023/07/16 06:22:41;;;;;;;3.45;0.95;;;;;;;;;;5118378;28;20126;-84
2023/07/16 06:25:10;;;;;;;2.45;1.25;;;;;;;;;;5119588;28;20039;-84
2023/07/16 06:27:38;;;;;;;3.75;1.20;;;;;;;;;;5117603;28;20043;-81
2023/07/16 06:30:06;;;;;;;1.85;1.15;;;;;;;;;;5116285;28;20101;-84
2023/07/16 06:32:33;;;;;;;1.20;1.00;;;;;;;;;;5117175;28;20100;-84
2023/07/16 06:35:00;;;;;;;1.95;1.13;;;;;;;;;;5116996;28;20069;-81
2023/07/16 06:37:27;;;;;;;5.22;1.05;;;;;;;;;;5116526;28;20051;-83
2023/07/16 06:39:55;;;;;;;4.30;0.98;;;;;;;;;;5117834;28;20052;-83
2023/07/16 06:42:22;;;;;;;2.60;1.15;;;;;;;;;;5116006;28;20096;-83
2023/07/16 06:44:49;;;;;;;2.00;0.82;;;;;;;;;;5117407;28;20481;-84
2023/07/16 06:47:16;;;;;;;3.90;1.35;;;;;;;;;;5117482;28;20074;-84
2023/07/16 06:49:44;;;;;;;3.60;1.00;;;;;;;;;;5116420;28;20040;-84
2023/07/16 06:52:30;;;;;;;2.55;1.05;;;;;;;;;;5115905;28;20047;-84
2023/07/16 06:54:57;;;;;;;2.22;1.10;;;;;;;;;;5117521;28;20056;-84
2023/07/16 06:57:25;;;;;;;3.60;1.20;;;;;;;;;;5115399;28;20100;-84
2023/07/16 06:59:52;;;;;;;3.70;1.35;;;;;;;;;;5114707;28;20058;-83
2023/07/16 07:02:20;;;;;;;4.60;1.48;;;;;;;;;;5115964;28;20039;-84
2023/07/16 07:04:48;;;;;;;3.83;1.35;;;;;;;;;;5115876;28;20054;-83
2023/07/16 07:07:15;;;;;;;3.35;1.23;;;;;;;;;;5115218;28;20499;-84
2023/07/16 07:09:42;;;;;;;4.72;1.10;;;;;;;;;;5115547;28;20048;-84
2023/07/16 07:12:09;;;;;;;5.20;1.52;;;;;;;;;;5116570;28;20060;-84
2023/07/16 07:14:36;;;;;;;4.00;1.55;;;;;;;;;;5115602;28;20055;-81
2023/07/16 07:17:04;;;;;;;3.17;1.45;;;;;;;;;;5114796;28;20050;-84
2023/07/16 07:19:32;;;;;;;2.92;1.23;;;;;;;;;;5114279;28;20495;-84
2023/07/16 07:21:59;;;;;;;2.08;1.10;;;;;;;;;;5114496;28;20058;-83
2023/07/16 07:24:26;;;;;;;2.00;1.13;;;;;;;;;;5116181;28;20222;-83
2023/07/16 07:26:54;;;;;;;3.65;1.42;;;;;;;;;;5116113;28;20077;-84
2023/07/16 07:29:22;;;;;;;3.42;1.63;;;;;;;;;;5114629;28;20134;-87
2023/07/16 07:31:49;;;;;;;3.03;1.20;;;;;;;;;;5114970;28;20048;-83
2023/07/16 07:34:17;;;;;;;1.90;1.23;;;;;;;;;;5113082;28;20052;-82
2023/07/16 07:36:44;;;;;;;3.13;1.50;;;;;;;;;;5113856;28;20105;-83
2023/07/16 07:39:13;;;;;;;6.63;1.35;;;;;;;;;;5113262;28;20530;-83
2023/07/16 07:41:40;;;;;;;5.15;1.08;;;;;;;;;;5114617;28;20048;-83
2023/07/16 07:44:07;;;;;;;4.07;3.72;;;;;;;;;;5112826;28;20065;-82
2023/07/16 07:46:34;;;;;;;3.97;1.73;;;;;;;;;;5114215;28;20051;-81
2023/07/16 07:49:02;;;;;;;4.85;1.30;;;;;;;;;;5115810;28;20392;-81
2023/07/16 07:51:29;;;;;;;5.15;1.20;;;;;;;;;;5115026;28;20100;-82
2023/07/16 07:53:56;;;;;;;5.13;2.78;;;;;;;;;;5114207;28;20431;-83
2023/07/16 07:56:23;;;;;;;4.13;1.73;;;;;;;;;;5116333;28;20484;-83
2023/07/16 07:58:50;;;;;;;4.18;1.20;;;;;;;;;;5115166;28;20052;-83
2023/07/16 08:01:18;;;;;;;3.15;1.67;;;;;;;;;;5113137;28;20043;-81
2023/07/16 08:03:45;;;;;;;3.20;1.20;;;;;;;;;;5114513;28;20400;-82
2023/07/16 08:06:12;;;;;;;1.27;0.93;;;;;;;;;;5113544;28;20056;-81
2023/07/16 08:08:40;;;;;;;1.33;1.00;;;;;;;;;;5113399;28;20040;-83
2023/07/16 08:11:07;;;;;;;5.72;1.60;;;;;;;;;;5113206;28;20077;-83
2023/07/16 08:13:35;;;;;;;1.40;1.17;;;;;;;;;;5113789;28;20075;-83
2023/07/16 08:16:02;;;;;;;3.45;1.15;;;;;;;;;;5113791;28;20039;-81
2023/07/16 08:18:29;;;;;;;2.53;1.05;;;;;;;;;;5112806;28;20069;-83
2023/07/16 08:20:56;;;;;;;3.60;1.25;;;;;;;;;;5115253;28;20051;-84
2023/07/16 08:23:24;;;;;;;4.38;1.30;;;;;;;;;;5115605;28;20131;-82
2023/07/16 08:25:51;;;;;;;3.10;1.08;;;;;;;;;;5116916;28;20043;-82
2023/07/16 08:28:18;;;;;;;10.57;2.13;;;;;;;;;;5115145;28;20043;-81
2023/07/16 08:30:48;;;;;;;1.98;1.20;;;;;;;;;;5116688;28;20051;-84
2023/07/16 08:33:16;;;;;;;3.50;1.35;;;;;;;;;;5116911;28;20136;-80
2023/07/16 08:35:43;;;;;;;2.90;1.27;;;;;;;;;;5116476;28;20059;-85
2023/07/16 08:38:10;;;;;;;3.25;1.30;;;;;;;;;;5116545;28;20044;-84
2023/07/16 08:40:39;;;;;;;7.43;1.75;;;;;;;;;;5117877;28;20087;-82
2023/07/16 08:43:07;;;;;;;5.43;1.33;;;;;;;;;;5115704;28;20054;-83
2023/07/16 08:45:39;;;;;;;6.13;1.60;;;;;;;;;;5115883;28;20465;-82
2023/07/16 08:48:07;;;;;;;3.20;1.15;;;;;;;;;;5113804;28;20047;-85
2023/07/16 08:50:38;;;;;;;1.95;0.90;;;;;;;;;;5115963;28;20123;-85
2023/07/16 08:53:06;;;;;;;4.22;1.42;;;;;;;;;;5115877;28;20048;-84
2023/07/16 08:55:34;;;;;;;4.35;1.40;;;;;;;;;;5115463;28;20052;-85
2023/07/16 08:58:02;;;;;;;1.95;1.13;;;;;;;;;;5115305;28;20130;-82
2023/07/16 09:00:30;;;;;;;2.83;1.13;;;;;;;;;;5117374;28;20051;-84
2023/07/16 09:02:57;;;;;;;3.30;1.10;;;;;;;;;;5115192;28;20066;-82
2023/07/16 09:05:24;;;;;;;3.00;1.15;;;;;;;;;;5115385;28;20121;-82
2023/07/16 09:08:06;;;;;;;2.80;1.17;;;;;;;;;;5114877;28;20126;-83
2023/07/16 09:10:34;;;;;;;1.70;1.02;;;;;;;;;;5115525;28;20044;-84
2023/07/16 09:13:01;;;;;;;2.05;1.10;;;;;;;;;;5122239;28;20052;-85
2023/07/16 09:15:29;;;;;;;4.63;1.17;;;;;;;;;;5124253;28;20077;-84
2023/07/16 09:17:57;;;;;;;1.23;1.00;;;;;;;;;;5124550;28;20180;-84
2023/07/16 09:20:24;;;;;;;3.75;1.35;;;;;;;;;;5122929;28;20077;-83
2023/07/16 09:22:57;;;;;;;9.57;1.63;;;;;;;;;;5119448;28;20044;-85
2023/07/16 09:25:29;;;;;;;5.47;1.13;;;;;;;;;;5119209;28;20138;-84
2023/07/16 09:27:58;;;;;;;4.03;1.42;;;;;;;;;;5118698;28;20074;-84
2023/07/16 09:30:25;;;;;;;1.55;0.90;;;;;;;;;;5115658;28;20040;-82
2023/07/16 09:32:53;;;;;;;2.58;1.30;;;;;;;;;;5116437;28;20090;-83
2023/07/16 09:35:20;;;;;;;3.90;1.45;;;;;;;;;;5113819;28;20479;-84
2023/07/16 09:37:48;;;;;;;2.28;1.02;;;;;;;;;;5116602;28;20060;-85
2023/07/16 09:40:15;;;;;;;2.25;1.30;;;;;;;;;;5116046;28;20052;-83
2023/07/16 09:42:43;;;;;;;2.17;1.67;;;;;;;;;;5115535;28;20043;-83
2023/07/16 09:45:18;;;;;;;4.95;1.40;;;;;;;;;;5116697;28;20076;-83
2023/07/16 09:47:46;;;;;;;3.92;1.40;;;;;;;;;;5116186;28;20471;-82
2023/07/16 09:50:14;;;;;;;2.45;1.10;;;;;;;;;;5115989;28;20051;-84
2023/07/16 09:52:42;;;;;;;2.88;1.40;;;;;;;;;;5114563;28;20047;-83
2023/07/16 09:55:10;;;;;;;4.00;1.40;;;;;;;;;;5113975;28;20051;-84
2023/07/16 09:57:42;;;;;;;5.15;1.48;;;;;;;;;;5114956;28;20052;-82
2023/07/16 10:00:14;;;;;;;2.95;1.30;;;;;;;;;;5114773;28;20456;-82
2023/07/16 10:02:41;;;;;;;2.58;1.20;;;;;;;;;;5116244;28;20044;-81
2023/07/16 10:05:13;;;;;;;2.38;1.15;;;;;;;;;;5114983;28;20078;-82
2023/07/16 10:07:41;;;;;;;4.22;1.27;;;;;;;;;;5115935;27;20054;-82
2023/07/16 10:10:09;;;;;;;3.08;1.30;;;;;;;;;;5115117;28;20047;-82
2023/07/16 10:12:36;;;;;;;3.25;1.23;;;;;;;;;;5113388;28;20067;-82
2023/07/16 10:15:04;;;;;;;5.70;1.48;;;;;;;;;;5113960;28;20055;-84
2023/07/16 10:17:32;;;;;;;3.42;1.40;;;;;;;;;;5113023;28;20051;-81
2023/07/16 10:19:59;;;;;;;4.15;1.42;;;;;;;;;;5114699;28;20081;-82
2023/07/16 10:22:32;;;;;;;2.33;1.42;;;;;;;;;;5115308;28;20171;-81
2023/07/16 10:25:00;;;;;;;3.22;1.10;;;;;;;;;;5113514;28;20487;-83
2023/07/16 10:27:34;;;;;;;3.78;1.48;;;;;;;;;;5114162;28;20040;-80
2023/07/16 10:30:03;;;;;;;3.95;1.52;;;;;;;;;;5112800;28;20048;-83
2023/07/16 10:32:30;;;;;;;5.15;1.80;;;;;;;;;;5112825;28;20059;-83
2023/07/16 10:34:58;;;;;;;3.92;1.70;;;;;;;;;;5113346;28;20058;-83
2023/07/16 10:37:26;;;;;;;3.42;1.17;;;;;;;;;;5113504;28;20408;-83
2023/07/16 10:39:54;;;;;;;2.95;1.50;;;;;;;;;;5112674;28;20043;-81
2023/07/16 10:42:22;;;;;;;4.82;1.60;;;;;;;;;;5113531;28;20508;-81
2023/07/16 10:44:53;;;;;;;5.28;1.58;;;;;;;;;;5113766;28;20487;-83
2023/07/16 10:47:24;;;;;;;4.35;1.40;;;;;;;;;;5113269;28;20048;-82
2023/07/16 10:49:52;;;;;;;2.78;1.20;;;;;;;;;;5112553;28;20075;-84
2023/07/16 10:52:20;;;;;;;4.40;1.40;;;;;;;;;;5120059;28;20116;-84
2023/07/16 10:54:49;;;;;;;1.88;1.33;;;;;;;;;;5121303;28;20404;-85
2023/07/16 10:57:17;;;;;;;4.00;1.67;;;;;;;;;;5120517;28;20052;-84
2023/07/16 10:59:45;;;;;;;3.85;1.40;;;;;;;;;;5118515;28;20051;-84
2023/07/16 11:02:13;;;;;;;6.07;2.03;;;;;;;;;;5120105;28;20044;-83
2023/07/16 11:04:41;;;;;;;3.70;1.20;;;;;;;;;;5120527;28;20073;-83
2023/07/16 11:07:11;;;;;;;2.30;1.42;;;;;;;;;;5113927;28;20082;-84
2023/07/16 11:09:45;;;;;;;3.03;1.77;;;;;;;;;;5115371;28;20070;-79
2023/07/16 11:12:14;;;;;;;4.70;1.35;;;;;;;;;;5114742;28;20461;-81
2023/07/16 11:14:45;;;;;;;5.05;1.50;;;;;;;;;;5114870;28;20069;-86
2023/07/16 11:17:13;;;;;;;4.38;1.42;;;;;;;;;;5114115;28;20051;-83
2023/07/16 11:19:42;;;;;;;3.53;1.60;;;;;;;;;;5113348;28;20517;-82
2023/07/16 11:22:13;;;;;;;3.72;1.48;;;;;;;;;;5115549;28;20051;-84
2023/07/16 11:24:40;;;;;;;2.45;1.35;;;;;;;;;;5115714;28;20078;-83
2023/07/16 11:27:27;;;;;;;5.40;1.58;;;;;;;;;;5115152;28;20063;-83
2023/07/16 11:29:55;;;;;;;2.58;1.65;;;;;;;;;;5115178;28;20078;-82
2023/07/16 11:32:30;;;;;;;2.08;1.35;;;;;;;;;;5114336;28;20052;-82
2023/07/16 11:34:59;;;;;;;3.28;1.80;;;;;;;;;;5118647;28;20055;-82
2023/07/16 11:37:26;;;;;;;2.78;1.60;;;;;;;;;;5124532;28;20073;-85
2023/07/16 11:40:07;;;;;;;4.43;1.98;;;;;;;;;;5123044;28;20071;-81
2023/07/16 11:42:38;;;;;;;3.10;1.73;;;;;;;;;;5123913;28;20047;-82
2023/07/16 11:45:15;;;;;;;2.22;1.50;;;;;;;;;;5122907;28;20112;-82
2023/07/16 11:47:42;;;;;;;6.30;1.60;;;;;;;;;;5121485;28;20051;-85
2023/07/16 11:50:11;;;;;;;2.45;1.50;;;;;;;;;;5122484;28;20051;-85
2023/07/16 11:52:39;;;;;;;3.00;1.60;;;;;;;;;;5123650;28;20056;-85
2023/07/16 11:55:06;;;;;;;5.35;1.90;;;;;;;;;;5127326;28;20100;-83
2023/07/16 11:57:33;;;;;;;4.60;1.60;;;;;;;;;;5125151;28;20048;-86
2023/07/16 12:00:00;;;;;;;5.43;1.63;;;;;;;;;;5126218;28;20055;-83
2023/07/16 12:02:29;;;;;;;5.68;1.73;;;;;;;;;;5124558;28;20096;-83
2023/07/16 12:04:57;;;;;;;4.32;2.00;;;;;;;;;;5127124;28;20043;-84
2023/07/16 12:07:36;;;;;;;2.58;1.58;;;;;;;;;;5125318;28;20050;-83
2023/07/16 12:10:04;;;;;;;9.23;2.20;;;;;;;;;;5126397;28;20414;-84
2023/07/16 12:12:32;;;;;;;3.80;1.48;;;;;;;;;;5124938;28;20075;-83
2023/07/16 12:15:02;;;;;;;5.10;1.48;;;;;;;;;;5123046;28;20433;-84
2023/07/16 12:17:30;;;;;;;3.42;1.50;;;;;;;;;;5124954;28;20047;-86
2023/07/16 12:19:57;;;;;;;6.78;1.75;;;;;;;;;;5123341;28;20505;-84
2023/07/16 12:22:24;;;;;;;3.92;1.80;;;;;;;;;;5123454;28;20069;-84
2023/07/16 12:24:52;;;;;;;4.10;1.48;;;;;;;;;;5123178;28;20157;-85
2023/07/16 12:27:20;;;;;;;2.17;1.50;;;;;;;;;;5122879;28;20097;-83
2023/07/16 12:29:47;;;;;;;4.97;1.98;;;;;;;;;;5122586;28;20047;-82
2023/07/16 12:32:14;;;;;;;4.03;2.00;;;;;;;;;;5123089;28;20043;-84
2023/07/16 12:34:42;;;;;;;2.38;1.52;;;;;;;;;;5125785;28;20419;-81
2023/07/16 12:37:09;;;;;;;3.03;1.65;;;;;;;;;;5125154;28;20047;-81
2023/07/16 12:39:38;;;;;;;3.75;1.88;;;;;;;;;;5125359;28;20054;-82
2023/07/16 12:42:05;;;;;;;4.55;1.98;;;;;;;;;;5122540;28;20190;-81
2023/07/16 12:44:33;;;;;;;4.57;1.73;;;;;;;;;;5123537;28;20044;-82
2023/07/16 12:47:00;;;;;;;5.53;1.60;;;;;;;;;;5120515;28;20089;-81
2023/07/16 12:49:27;;;;;;;4.13;1.65;;;;;;;;;;5121786;28;20044;-83
2023/07/16 12:51:54;;;;;;;4.65;1.65;;;;;;;;;;5119573;28;20100;-82
2023/07/16 12:54:22;;;;;;;6.47;1.80;;;;;;;;;;5119380;28;20126;-84
2023/07/16 12:56:49;;;;;;;3.38;1.65;;;;;;;;;;5120922;28;20090;-83
2023/07/16 12:59:16;;;;;;;3.70;1.77;;;;;;;;;;5118576;28;20082;-82
2023/07/16 13:01:44;;;;;;;3.80;1.60;;;;;;;;;;5121220;28;20083;-83
2023/07/16 13:04:11;;;;;;;5.28;2.10;;;;;;;;;;5117738;28;20047;-82
2023/07/16 13:06:38;;;;;;;4.53;2.05;;;;;;;;;;5115955;28;20507;-84
2023/07/16 13:09:07;;;;;;;2.83;1.58;;;;;;;;;;5117796;28;20075;-83
2023/07/16 13:11:34;;;;;;;6.00;1.55;;;;;;;;;;5117666;28;20092;-82
2023/07/16 13:14:02;;;;;;;6.18;1.50;;;;;;;;;;5119131;28;20498;-81
2023/07/16 13:16:29;;;;;;;3.28;1.80;;;;;;;;;;5119585;28;20055;-83
2023/07/16 13:18:56;;;;;;;3.75;1.80;;;;;;;;;;5118820;28;20055;-83
2023/07/16 13:21:23;;;;;;;4.63;2.10;;;;;;;;;;5118130;28;20461;-83
2023/07/16 13:23:51;;;;;;;3.00;2.00;;;;;;;;;;5119114;28;20054;-83
2023/07/16 13:26:18;;;;;;;3.28;1.90;;;;;;;;;;5118611;28;20059;-84
2023/07/16 13:28:45;;;;;;;2.92;1.60;;;;;;;;;;5120480;28;20074;-80
2023/07/16 13:31:13;;;;;;;8.55;1.80;;;;;;;;;;5118872;28;20043;-81
2023/07/16 13:33:40;;;;;;;3.28;1.55;;;;;;;;;;5120429;28;20047;-81
2023/07/16 13:36:07;;;;;;;3.53;1.77;;;;;;;;;;5119266;28;20044;-82
2023/07/16 13:38:35;;;;;;;4.28;2.15;;;;;;;;;;5121255;27;20069;-83
2023/07/16 13:41:02;;;;;;;4.65;1.85;;;;;;;;;;5117992;28;20085;-84
2023/07/16 13:43:29;;;;;;;4.45;1.98;;;;;;;;;;5117296;28;20040;-82
2023/07/16 13:45:56;;;;;;;4.35;2.25;;;;;;;;;;5117227;28;20052;-82
2023/07/16 13:48:24;;;;;;;2.70;1.92;;;;;;;;;;5118072;28;20051;-83
2023/07/16 13:50:51;;;;;;;2.10;1.67;;;;;;;;;;5117724;28;20047;-83
2023/07/16 13:53:19;;;;;;;3.53;1.75;;;;;;;;;;5117570;28;20078;-82
2023/07/16 13:55:46;;;;;;;3.28;1.65;;;;;;;;;;5115503;28;20116;-81
2023/07/16 13:58:14;;;;;;;3.53;1.98;;;;;;;;;;5117527;28;20055;-81
2023/07/16 14:00:41;;;;;;;3.08;2.00;;;;;;;;;;5117296;28;20113;-83
2023/07/16 14:03:09;;;;;;;6.45;2.42;;;;;;;;;;5115601;28;20087;-82
2023/07/16 14:05:38;;;;;;;4.57;1.80;;;;;;;;;;5115257;28;20056;-83
2023/07/16 14:08:06;;;;;;;5.38;2.30;;;;;;;;;;5116879;28;20047;-79
2023/07/16 14:10:33;;;;;;;2.65;1.75;;;;;;;;;;5115151;28;20411;-83
2023/07/16 14:13:00;;;;;;;3.60;2.15;;;;;;;;;;5123364;28;20048;-83
2023/07/16 14:15:28;;;;;;;2.05;1.60;;;;;;;;;;5122665;28;20106;-81
2023/07/16 14:17:55;;;;;;;2.80;1.90;;;;;;;;;;5121099;28;20052;-81
2023/07/16 14:20:22;;;;;;;5.28;2.08;;;;;;;;;;5120867;28;20073;-83
2023/07/16 14:22:50;;;;;;;6.32;2.30;;;;;;;;;;5118313;28;20047;-83
2023/07/16 14:25:17;;;;;;;4.65;1.83;;;;;;;;;;5119299;28;20108;-83
2023/07/16 14:27:45;;;;;;;2.20;1.80;;;;;;;;;;5117107;28;20139;-83
2023/07/16 14:30:12;;;;;;;3.45;1.80;;;;;;;;;;5116826;28;20097;-82
2023/07/16 14:32:39;;;;;;;2.80;2.20;;;;;;;;;;5115595;28;20044;-81
2023/07/16 14:35:07;;;;;;;4.03;2.00;;;;;;;;;;5118724;28;20419;-81
2023/07/16 14:37:51;;;;;;;2.80;1.90;;;;;;;;;;5119971;28;20622;-81
2023/07/16 14:40:19;;;;;;;2.80;1.90;;;;;;;;;;5117961;28;20052;-82
2023/07/16 14:42:47;;;;;;;2.83;2.15;;;;;;;;;;5116227;28;20054;-80
2023/07/16 14:45:14;;;;;;;2.40;1.80;;;;;;;;;;5116197;28;20046;-83
2023/07/16 14:47:42;;;;;;;3.35;1.90;;;;;;;;;;5115164;28;20047;-81